Nantucket, MA

3:47 AM EDT on August 31, 2014 (GMT -0400)
Barnstable Municipal-Boardman-Polando Field | Change Station
CLOSE
Current Station
Airport
Location: Hyannis,
Elevation: 52 ft
Nearby Weather Stations

Elev 52 ft 41.67 °N, 70.28 °W | Updated 51 minutes ago

Overcast
Overcast
71 °F
Feels Like 71 °F
N
13
Wind Variable Wind from SSW

Today
High -- | Low -- °F
--% Chance of Precip.
Yesterday
High -- | Low -- °F
Precip. -- in
6:05 AM 7:14 PM
Waxing Crescent, 28% visible
Pressure 30.15 in
Visibility 10.0 miles
Clouds Overcast 4600 ft
Dew Point 64 °F
Humidity 78%
Rainfall 0.00 in
Snow Depth Not available.
UV 0 out of 12
Pollen 7.00 out of 12
Air Quality Not available.
Flu Activity Not available.
METAR KHYA 310656Z 21011KT 10SM OVC046 22/18 A3015 RMK AO2 SLP209 T02170178

More Conditions Fewer Conditions

Pressure 30.15 in
Visibility 10.0 miles
Clouds Overcast 4600 ft
Dew Point 64 °F
Humidity 78%
Rainfall 0.00 in
Snow Depth Not available.
UV 0 out of 12
Pollen 7.00 out of 12
Air Quality Not available.
Flu Activity Not available.
METAR KHYA 310656Z 21011KT 10SM OVC046 22/18 A3015 RMK AO2 SLP209 T02170178

More Conditions Fewer Conditions

10-Day Weather Forecast

Almanac

Astronomy

Aug. 31, 2014 Rise Set
Actual Time 6:05 AM EDT 7:14 PM EDT
Civil Twilight 5:37 AM EDT 7:43 PM EDT
Nautical Twilight 5:03 AM EDT 8:17 PM EDT
Astronomical Twilight 4:27 AM EDT 8:52 PM EDT
Moon 11:52 AM EDT 10:23 PM EDT
Length of Visible Light 14h 05m
Length of Day
13h 09m
Tomorrow will be 2m 38s shorter.
Waxing Crescent, 28% of the Moon is Illuminated
Today
Waxing Crescent
Sep 2
First Quarter
Sep 8
Full
Sep 15
Last Quarter
Sep 24
New

Today's Extremes

State Highs State Lows

Community

WunderPhotos

Upload Photos

1,748,809 photos uploaded!

Nearby

Air Quality

  Air Quality AQ Index Pollutant
Yesterday Good
OZONE
Sunday Good
PM2.5
Sunday Good
OZONE
Monday Moderate
PM2.5
Monday Good
OZONE
Tuesday Moderate
PM2.5
Tuesday Moderate
OZONE

Snow Depth

Station Depth Elevation
No new snow has been reported.

Earthquake Activity

City Distance Mag. Time & Date
No recent earthquake activity has been reported nearby.
Minimum magnitude displayed is 2.5.

Coastal Water Temperatures

Place Temperature
Nantucket Island, MA 71.1 °F
Woods Hole, MA 71.1 °F
Fall River, MA 73.0 °F
Boston, MA 68.0 °F

Nearby Weather Stations